.
WxDataArchive / Data Records for 2010-05-15
2010-05-14 May 2010 2010-05-16

Data Records for Saturday, 15 May 2010

Time	Temp	Chill	HIndex	Humid	Dewpt	 Wind 	HiWind	WindDir	Rain 	Barom 
-----	----	-----	------	-----	-----	------	------	-------	-----	----- 
00:00	51.4	51.4	51.4	83	46.4	0	0	---	0.00	30.229 
00:05	51.3	51.3	51.3	84	46.6	0	0	---	0.00	30.229 
00:10	51.1	51.1	51.1	84	46.4	0	0	---	0.00	30.229 
00:15	51.0	51.0	51.0	85	46.7	0	0	---	0.00	30.229 
00:20	50.8	50.8	50.8	85	46.5	0	0	---	0.00	30.229 
00:25	50.7	50.7	50.7	85	46.4	0	0	---	0.00	30.229 
00:30	50.5	50.5	50.5	86	46.5	0	0	---	0.00	30.227 
00:35	50.4	50.4	50.4	86	46.4	0	0	---	0.00	30.227 
00:40	50.2	50.2	50.2	87	46.5	0	0	---	0.00	30.227 
00:45	50.1	50.1	50.1	87	46.4	0	0	---	0.00	30.230 
00:50	49.9	49.9	49.9	87	46.2	0	0	---	0.00	30.230 
00:55	49.8	49.8	49.8	88	46.4	0	0	---	0.00	30.230 
01:00	49.6	49.6	49.6	88	46.2	0	0	---	0.00	30.231 
01:05	49.6	49.6	49.6	88	46.2	0	0	---	0.00	30.231 
01:10	49.5	49.5	49.5	88	46.1	0	0	---	0.00	30.231 
01:15	49.4	49.4	49.4	88	46.0	0	0	---	0.00	30.232 
01:20	49.4	49.4	49.4	88	46.0	0	0	---	0.00	30.232 
01:25	49.2	49.2	49.2	89	46.1	0	0	---	0.00	30.232 
01:30	49.1	49.1	49.1	89	46.0	0	0	---	0.00	30.235 
01:35	48.9	48.9	48.9	89	45.8	0	0	---	0.00	30.235 
01:40	48.8	48.8	48.8	89	45.7	0	0	---	0.00	30.235 
01:45	48.8	48.8	48.8	89	45.7	0	0	---	0.00	30.241 
01:50	48.6	48.6	48.6	89	45.5	0	0	---	0.00	30.241 
01:55	48.6	48.6	48.6	90	45.8	0	0	---	0.00	30.241 
02:00	48.5	48.5	48.5	89	45.4	0	0	---	0.00	30.235 
02:05	48.3	48.3	48.3	90	45.5	0	0	---	0.00	30.235 
02:10	48.2	48.2	48.2	90	45.4	0	0	---	0.00	30.235 
02:15	48.0	48.0	48.0	90	45.2	0	0	---	0.00	30.229 
02:20	48.0	48.0	48.0	90	45.2	0	0	---	0.00	30.229 
02:25	47.9	47.9	47.9	90	45.1	0	0	---	0.00	30.229 
02:30	47.7	47.7	47.7	90	44.9	0	0	---	0.00	30.233 
02:35	47.7	47.7	47.7	91	45.2	0	0	---	0.00	30.233 
02:40	47.7	47.7	47.7	91	45.2	0	0	---	0.00	30.233 
02:45	47.6	47.6	47.6	91	45.1	0	0	---	0.00	30.227 
02:50	47.6	47.6	47.6	91	45.1	0	0	---	0.00	30.227 
02:55	47.4	47.4	47.4	91	44.9	0	0	---	0.00	30.227 
03:00	47.3	47.3	47.3	91	44.8	0	0	---	0.00	30.226 
03:05	47.3	47.3	47.3	91	44.8	0	0	---	0.00	30.226 
03:10	47.1	47.1	47.1	91	44.6	0	0	---	0.00	30.226 
03:15	47.1	47.1	47.1	91	44.6	0	0	---	0.00	30.223 
03:20	47.0	47.0	47.0	91	44.5	0	0	---	0.00	30.223 
03:25	46.8	46.8	46.8	91	44.3	0	0	---	0.00	30.223 
03:30	46.8	46.8	46.8	91	44.3	0	0	---	0.00	30.221 
03:35	46.7	46.7	46.7	91	44.2	0	0	---	0.00	30.221 
03:40	46.5	46.5	46.5	91	44.0	0	0	---	0.00	30.221 
03:45	46.5	46.5	46.5	92	44.3	0	0	---	0.00	30.223 
03:50	46.7	46.7	46.7	92	44.5	0	0	---	0.00	30.223 
03:55	46.8	46.8	46.8	92	44.6	0	0	---	0.00	30.223 
04:00	46.8	46.8	46.8	92	44.6	0	0	---	0.00	30.223 
04:05	46.8	46.8	46.8	92	44.6	0	0	---	0.00	30.223 
04:10	46.8	46.8	46.8	92	44.6	0	0	---	0.00	30.223 
04:15	46.8	46.8	46.8	92	44.6	0	0	---	0.00	30.228 
04:20	47.0	47.0	47.0	92	44.8	0	0	---	0.00	30.228 
04:25	47.0	47.0	47.0	92	44.8	0	0	---	0.00	30.228 
04:30	47.0	47.0	47.0	92	44.8	0	0	---	0.00	30.227 
04:35	47.0	47.0	47.0	92	44.8	0	0	---	0.00	30.227 
04:40	46.8	46.8	46.8	92	44.6	0	0	---	0.00	30.227 
04:45	46.8	46.8	46.8	92	44.6	0	0	---	0.00	30.228 
04:50	46.7	46.7	46.7	92	44.5	0	0	---	0.00	30.228 
04:55	46.5	46.5	46.5	92	44.3	0	0	---	0.00	30.228 
05:00	46.4	46.4	46.4	92	44.2	0	0	---	0.00	30.229 
05:05	46.4	46.4	46.4	92	44.2	0	0	---	0.00	30.229 
05:10	46.2	46.2	46.2	92	44.0	0	0	---	0.00	30.229 
05:15	46.2	46.2	46.2	92	44.0	0	0	---	0.00	30.229 
05:20	46.1	46.1	46.1	92	43.9	0	0	---	0.00	30.229 
05:25	45.8	45.8	45.8	92	43.6	0	0	---	0.00	30.229 
05:30	45.7	45.7	45.7	92	43.5	0	0	---	0.00	30.231 
05:35	45.5	45.5	45.5	92	43.3	0	0	---	0.00	30.231 
05:40	45.4	45.4	45.4	92	43.2	0	0	---	0.00	30.231 
05:45	45.4	45.4	45.4	92	43.2	0	0	---	0.00	30.239 
05:50	45.2	45.2	45.2	92	43.0	0	0	---	0.00	30.239 
05:55	45.1	45.1	45.1	92	42.9	0	0	---	0.00	30.239 
06:00	44.9	44.9	44.9	92	42.7	0	0	---	0.00	30.242 
06:05	44.9	44.9	44.9	92	42.7	0	0	---	0.00	30.242 
06:10	44.9	44.9	44.9	92	42.7	0	0	---	0.00	30.242 
06:15	44.8	44.8	44.8	92	42.6	0	0	---	0.00	30.247 
06:20	44.8	44.8	44.8	93	42.9	0	0	---	0.00	30.247 
06:25	44.6	44.6	44.6	93	42.7	0	0	---	0.00	30.247 
06:30	44.6	44.6	44.6	93	42.7	0	0	---	0.00	30.249 
06:35	44.6	44.6	44.6	93	42.7	0	0	---	0.00	30.249 
06:40	44.6	44.6	44.6	93	42.7	0	0	---	0.00	30.249 
06:45	44.6	44.6	44.6	93	42.7	0	0	---	0.00	30.250 
06:50	44.8	44.8	44.8	93	42.9	0	0	---	0.00	30.250 
06:55	44.9	44.9	44.9	93	43.0	0	0	---	0.00	30.250 
07:00	45.1	45.1	45.1	94	43.5	0	0	---	0.00	30.249 
07:05	45.2	45.2	45.2	94	43.6	0	0	---	0.00	30.249 
07:10	45.4	45.4	45.4	94	43.8	0	0	---	0.00	30.249 
07:15	45.7	45.7	45.7	94	44.1	0	0	---	0.00	30.261 
07:20	46.2	46.2	46.2	94	44.6	0	0	---	0.00	30.261 
07:25	47.0	47.0	47.0	95	45.6	0	0	---	0.00	30.261 
07:30	47.7	47.7	47.7	95	46.3	0	0	---	0.00	30.263 
07:35	48.5	48.5	48.5	94	46.9	0	1	338	0.00	30.263 
07:40	49.4	49.4	49.4	94	47.7	0	1	338	0.00	30.263 
07:45	50.2	50.2	50.2	94	48.5	0	1	338	0.00	30.271 
07:50	50.7	50.7	50.7	92	48.5	0	1	338	0.00	30.271 
07:55	51.3	51.3	51.3	90	48.5	0	1	338	0.00	30.271 
08:00	52.0	52.0	52.0	88	48.6	0	1	338	0.00	30.270 
08:05	52.8	52.8	52.8	84	48.1	0	1	338	0.00	30.270 
08:10	53.6	53.6	53.6	82	48.2	0	2	338	0.00	30.270 
08:15	54.2	54.2	54.2	79	47.8	0	2	338	0.00	30.267 
08:20	55.0	55.0	55.0	77	47.9	1	2	338	0.00	30.267 
08:25	55.4	55.4	55.4	75	47.6	1	2	338	0.00	30.267 
08:30	56.0	56.0	56.0	76	48.5	1	3	338	0.00	30.267 
08:35	56.5	56.5	56.5	73	47.9	0	1	338	0.00	30.267 
08:40	56.9	56.9	56.9	72	48.0	1	3	338	0.00	30.267 
08:45	57.6	57.6	57.6	73	49.0	0	2	338	0.00	30.266 
08:50	58.3	58.3	58.3	70	48.6	1	2	338	0.00	30.266 
08:55	58.7	58.7	58.7	70	48.9	0	2	338	0.00	30.266 
09:00	59.0	59.0	59.0	67	48.1	1	3	338	0.00	30.269 
09:05	59.5	59.5	59.5	66	48.1	1	3	338	0.00	30.269 
09:10	59.9	59.9	59.9	67	48.9	1	3	338	0.00	30.269 
09:15	60.1	60.1	60.1	63	47.5	2	4	338	0.00	30.273 
09:20	60.2	60.2	60.2	65	48.4	1	3	338	0.00	30.273 
09:25	60.7	60.7	60.7	65	48.9	1	2	338	0.00	30.273 
09:30	61.2	61.2	61.2	62	48.1	1	2	338	0.00	30.275 
09:35	61.6	61.6	61.6	62	48.4	1	3	338	0.00	30.275 
09:40	62.0	62.0	62.0	62	48.8	1	2	338	0.00	30.275 
09:45	62.3	62.3	62.3	60	48.2	1	4	315	0.00	30.274 
09:50	62.4	62.4	62.4	60	48.3	1	2	315	0.00	30.274 
09:55	63.1	63.1	63.1	59	48.5	1	3	315	0.00	30.274 
10:00	63.1	63.1	63.1	57	47.6	1	3	315	0.00	30.272 
10:05	63.2	63.2	63.2	60	49.1	1	3	315	0.00	30.272 
10:10	63.4	63.4	63.4	58	48.4	1	2	315	0.00	30.272 
10:15	63.5	63.5	63.5	60	49.4	1	3	315	0.00	30.272 
10:20	63.7	63.7	63.7	56	47.7	1	2	315	0.00	30.272 
10:25	64.0	64.0	64.0	58	48.9	0	2	315	0.00	30.272 
10:30	64.7	64.7	64.7	59	50.0	0	2	315	0.00	30.269 
10:35	65.3	65.3	65.3	57	49.7	0	1	315	0.00	30.269 
10:40	65.8	65.8	65.8	55	49.2	0	2	315	0.00	30.269 
10:45	66.0	66.0	66.0	54	48.9	0	2	315	0.00	30.267 
10:50	66.4	66.4	66.4	55	49.7	0	1	315	0.00	30.267 
10:55	66.1	66.1	66.1	54	49.0	1	2	315	0.00	30.267 
11:00	66.1	66.1	66.1	52	48.0	0	1	315	0.00	30.264 
11:05	66.0	66.0	66.0	51	47.3	0	2	315	0.00	30.264 
11:10	66.0	66.0	66.0	53	48.4	0	3	315	0.00	30.264 
11:15	65.8	65.8	65.8	51	47.2	0	2	315	0.00	30.266 
11:20	66.0	66.0	66.0	53	48.4	0	2	315	0.00	30.266 
11:25	66.4	66.4	66.4	52	48.2	1	4	270	0.00	30.266 
11:30	66.6	66.6	66.6	51	47.9	1	2	270	0.00	30.268 
11:35	66.6	66.6	66.6	51	47.9	1	4	270	0.00	30.268 
11:40	66.8	66.8	66.8	53	49.1	1	3	248	0.00	30.268 
11:45	67.3	67.3	67.3	51	48.5	0	2	248	0.00	30.262 
11:50	67.8	67.8	67.8	50	48.5	0	2	248	0.00	30.262 
11:55	67.9	67.9	67.9	50	48.6	1	3	248	0.00	30.262 
12:00	67.9	67.9	67.9	50	48.6	1	2	248	0.00	30.262 
12:05	67.9	67.9	67.9	49	48.0	1	4	248	0.00	30.262 
12:10	67.8	67.8	67.8	49	47.9	0	2	248	0.00	30.262 
12:15	67.9	67.9	67.9	49	48.0	1	3	248	0.00	30.261 
12:20	67.9	67.9	67.9	48	47.5	1	3	248	0.00	30.261 
12:25	67.9	67.9	67.9	48	47.5	0	2	248	0.00	30.261 
12:30	67.8	67.8	67.8	50	48.5	1	2	270	0.00	30.260 
12:35	67.8	67.8	67.8	48	47.4	1	3	270	0.00	30.260 
12:40	67.6	67.6	67.6	47	46.6	1	3	270	0.00	30.260 
12:45	67.8	67.8	67.8	47	46.8	1	3	292	0.00	30.258 
12:50	67.9	67.9	67.9	48	47.5	0	1	292	0.00	30.258 
12:55	68.4	68.4	68.4	44	45.6	1	3	292	0.00	30.258 
13:00	68.8	68.8	68.8	47	47.7	1	3	292	0.00	30.257 
13:05	69.3	69.3	69.3	46	47.6	0	2	225	0.00	30.257 
13:10	69.1	69.1	69.1	47	48.0	1	3	315	0.00	30.257 
13:15	69.1	69.1	69.1	43	45.7	1	3	292	0.00	30.256 
13:20	68.9	68.9	68.9	42	44.9	0	2	292	0.00	30.256 
13:25	68.8	68.8	68.8	45	46.6	0	3	315	0.00	30.256 
13:30	68.6	68.6	68.6	41	44.0	1	3	315	0.00	30.252 
13:35	68.4	68.4	68.4	45	46.2	1	3	315	0.00	30.252 
13:40	68.4	68.4	68.4	43	45.0	0	3	315	0.00	30.252 
13:45	68.4	68.4	68.4	45	46.2	1	3	315	0.00	30.249 
13:50	68.4	68.4	68.4	44	45.6	1	4	315	0.00	30.249 
13:55	68.8	68.8	68.8	46	47.2	1	3	292	0.00	30.249 
14:00	68.8	68.8	68.8	43	45.4	1	3	315	0.00	30.247 
14:05	68.8	68.8	68.8	43	45.4	1	3	315	0.00	30.247 
14:10	68.9	68.9	68.9	44	46.1	1	3	248	0.00	30.247 
14:15	69.1	69.1	69.1	45	46.9	0	1	248	0.00	30.244 
14:20	69.4	69.4	69.4	46	47.7	0	1	248	0.00	30.244 
14:25	69.3	69.3	69.3	41	44.6	1	3	248	0.00	30.244 
14:30	68.9	68.9	68.9	42	44.9	1	2	315	0.00	30.240 
14:35	68.8	68.8	68.8	44	46.0	0	2	315	0.00	30.240 
14:40	68.9	68.9	68.9	41	44.2	1	3	315	0.00	30.240 
14:45	68.8	68.8	68.8	40	43.5	0	1	315	0.00	30.241 
14:50	68.8	68.8	68.8	42	44.8	1	3	315	0.00	30.241 
14:55	68.9	68.9	68.9	42	44.9	0	2	315	0.00	30.241 
15:00	69.1	69.1	69.1	40	43.8	0	2	315	0.00	30.238 
15:05	69.1	69.1	69.1	42	45.0	0	3	315	0.00	30.238 
15:10	69.1	69.1	69.1	42	45.0	1	3	315	0.00	30.238 
15:15	69.1	69.1	69.1	39	43.1	1	3	315	0.00	30.233 
15:20	68.9	68.9	68.9	42	44.9	0	2	315	0.00	30.233 
15:25	68.9	68.9	68.9	43	45.5	0	2	315	0.00	30.233 
15:30	68.9	68.9	68.9	43	45.5	0	2	315	0.00	30.235 
15:35	68.8	68.8	68.8	43	45.4	0	2	315	0.00	30.235 
15:40	69.1	69.1	69.1	42	45.0	0	2	315	0.00	30.235 
15:45	69.3	69.3	69.3	42	45.2	0	3	315	0.00	30.230 
15:50	69.6	69.6	69.6	44	46.7	1	2	315	0.00	30.230 
15:55	69.8	69.8	69.8	43	46.3	0	2	315	0.00	30.230 
16:00	69.9	69.9	69.9	43	46.4	1	4	315	0.00	30.228 
16:05	69.6	69.6	69.6	42	45.5	0	2	0	0.00	30.228 
16:10	69.4	69.4	69.4	45	47.1	0	1	0	0.00	30.228 
16:15	69.4	69.4	69.4	41	44.7	0	1	0	0.00	30.230 
16:20	69.1	69.1	69.1	42	45.0	1	3	248	0.00	30.230 
16:25	68.8	68.8	68.8	43	45.4	0	1	292	0.00	30.230 
16:30	68.6	68.6	68.6	43	45.2	0	1	292	0.00	30.226 
16:35	68.4	68.4	68.4	43	45.0	0	1	292	0.00	30.226 
16:40	68.3	68.3	68.3	43	44.9	0	1	292	0.00	30.226 
16:45	68.1	68.1	68.1	43	44.7	0	2	315	0.00	30.229 
16:50	67.9	67.9	67.9	45	45.8	0	1	315	0.00	30.229 
16:55	67.6	67.6	67.6	44	44.9	0	1	315	0.00	30.229 
17:00	67.6	67.6	67.6	46	46.1	0	1	315	0.00	30.232 
17:05	67.4	67.4	67.4	44	44.7	0	1	315	0.00	30.232 
17:10	67.3	67.3	67.3	44	44.6	0	1	315	0.00	30.232 
17:15	67.3	67.3	67.3	45	45.2	0	1	315	0.00	30.231 
17:20	67.1	67.1	67.1	45	45.0	0	1	315	0.00	30.231 
17:25	66.9	66.9	66.9	45	44.9	0	1	315	0.00	30.231 
17:30	66.8	66.8	66.8	44	44.2	0	2	315	0.00	30.232 
17:35	66.8	66.8	66.8	43	43.6	0	2	315	0.00	30.232 
17:40	66.6	66.6	66.6	45	44.6	1	2	315	0.00	30.232 
17:45	66.6	66.6	66.6	44	44.0	0	2	315	0.00	30.239 
17:50	66.4	66.4	66.4	45	44.4	1	3	315	0.00	30.239 
17:55	66.3	66.3	66.3	46	44.9	1	2	315	0.00	30.239 
18:00	66.1	66.1	66.1	48	45.8	0	2	315	0.00	30.241 
18:05	66.0	66.0	66.0	50	46.8	0	1	315	0.00	30.241 
18:10	65.8	65.8	65.8	54	48.7	0	0	---	0.00	30.241 
18:15	65.6	65.6	65.6	53	48.0	0	1	315	0.00	30.233 
18:20	65.3	65.3	65.3	55	48.7	0	0	---	0.00	30.233 
18:25	65.0	65.0	65.0	54	47.9	0	1	315	0.00	30.233 
18:30	64.8	64.8	64.8	55	48.2	0	1	315	0.00	30.231 
18:35	64.7	64.7	64.7	57	49.1	0	0	---	0.00	30.231 
18:40	64.5	64.5	64.5	59	49.8	0	0	---	0.00	30.231 
18:45	64.3	64.3	64.3	58	49.2	0	0	---	0.00	30.231 
18:50	64.2	64.2	64.2	57	48.6	0	1	315	0.00	30.231 
18:55	64.2	64.2	64.2	59	49.6	0	0	---	0.00	30.231 
19:00	64.0	64.0	64.0	60	49.8	0	0	---	0.00	30.223 
19:05	63.9	63.9	63.9	62	50.6	0	0	---	0.00	30.223 
19:10	63.7	63.7	63.7	63	50.9	0	0	---	0.00	30.223 
19:15	63.5	63.5	63.5	63	50.7	0	0	---	0.00	30.218 
19:20	63.4	63.4	63.4	63	50.6	0	0	---	0.00	30.218 
19:25	63.4	63.4	63.4	65	51.4	0	0	---	0.00	30.218 
19:30	63.4	63.4	63.4	65	51.4	0	0	---	0.00	30.215 
19:35	63.4	63.4	63.4	66	51.8	0	0	---	0.00	30.215 
19:40	63.4	63.4	63.4	65	51.4	0	0	---	0.00	30.215 
19:45	63.4	63.4	63.4	65	51.4	0	0	---	0.00	30.214 
19:50	63.2	63.2	63.2	65	51.2	0	0	---	0.00	30.214 
19:55	62.9	62.9	62.9	63	50.1	0	0	---	0.00	30.214 
20:00	62.9	62.9	62.9	65	50.9	0	0	---	0.00	30.215 
20:05	62.7	62.7	62.7	66	51.2	0	0	---	0.00	30.215 
20:10	62.6	62.6	62.6	69	52.3	0	0	---	0.00	30.215 
20:15	62.4	62.4	62.4	73	53.6	0	0	---	0.00	30.209 
20:20	62.1	62.1	62.1	74	53.7	0	0	---	0.00	30.209 
20:25	61.8	61.8	61.8	76	54.1	0	0	---	0.00	30.209 
20:30	61.3	61.3	61.3	77	54.0	0	0	---	0.00	30.211 
20:35	61.0	61.0	61.0	78	54.1	0	0	---	0.00	30.211 
20:40	60.9	60.9	60.9	78	54.0	0	0	---	0.00	30.211 
20:45	60.5	60.5	60.5	78	53.6	0	0	---	0.00	30.208 
20:50	60.4	60.4	60.4	79	53.9	0	0	---	0.00	30.208 
20:55	60.2	60.2	60.2	80	54.0	0	0	---	0.00	30.208 
21:00	60.1	60.1	60.1	81	54.2	0	0	---	0.00	30.209 
21:05	59.9	59.9	59.9	81	54.1	0	0	---	0.00	30.209 
21:10	59.8	59.8	59.8	81	54.0	0	0	---	0.00	30.209 
21:15	59.6	59.6	59.6	82	54.1	0	0	---	0.00	30.202 
21:20	59.5	59.5	59.5	83	54.3	0	0	---	0.00	30.202 
21:25	59.3	59.3	59.3	83	54.1	0	0	---	0.00	30.202 
21:30	59.3	59.3	59.3	83	54.1	0	0	---	0.00	30.199 
21:35	59.2	59.2	59.2	84	54.4	0	0	---	0.00	30.199 
21:40	59.0	59.0	59.0	84	54.2	0	0	---	0.00	30.199 
21:45	59.0	59.0	59.0	84	54.2	0	0	---	0.00	30.200 
21:50	58.9	58.9	58.9	85	54.4	0	0	---	0.00	30.200 
21:55	58.9	58.9	58.9	85	54.4	0	0	---	0.00	30.200 
22:00	58.7	58.7	58.7	85	54.2	0	0	---	0.00	30.201 
22:05	58.4	58.4	58.4	85	53.9	0	0	---	0.00	30.201 
22:10	58.3	58.3	58.3	86	54.1	0	0	---	0.00	30.201 
22:15	58.1	58.1	58.1	86	53.9	0	0	---	0.00	30.206 
22:20	58.1	58.1	58.1	86	53.9	0	0	---	0.00	30.206 
22:25	58.0	58.0	58.0	87	54.1	0	0	---	0.00	30.206 
22:30	58.0	58.0	58.0	87	54.1	0	0	---	0.00	30.211 
22:35	57.8	57.8	57.8	87	54.0	0	0	---	0.00	30.211 
22:40	57.6	57.6	57.6	87	53.8	0	0	---	0.00	30.211 
22:45	57.6	57.6	57.6	88	54.1	0	0	---	0.00	30.219 
22:50	57.5	57.5	57.5	88	54.0	0	0	---	0.00	30.219 
22:55	57.5	57.5	57.5	88	54.0	0	0	---	0.00	30.219 
23:00	57.5	57.5	57.5	88	54.0	0	0	---	0.00	30.219 
23:05	57.3	57.3	57.3	88	53.8	0	0	---	0.00	30.219 
23:10	57.3	57.3	57.3	88	53.8	0	0	---	0.00	30.219 
23:15	57.2	57.2	57.2	89	54.0	0	0	---	0.00	30.219 
23:20	57.2	57.2	57.2	89	54.0	0	0	---	0.00	30.219 
23:25	57.2	57.2	57.2	89	54.0	0	0	---	0.00	30.219 
23:30	57.0	57.0	57.0	89	53.8	0	0	---	0.00	30.216 
23:35	57.0	57.0	57.0	89	53.8	0	0	---	0.00	30.216 
23:40	57.0	57.0	57.0	89	53.8	0	0	---	0.00	30.216 
23:45	57.0	57.0	57.0	89	53.8	0	0	---	0.00	30.213 
23:50	57.0	57.0	57.0	90	54.1	0	0	---	0.00	30.213 
23:55	57.2	57.2	57.2	90	54.3	0	0	---	0.00	30.213 

CoCoRaHS
IN-AL-39
A2 Web Hosting
Creative Commons License
GoDaddy
search engine by freefind advanced

loaded 2018-11-13 21:41:22 • last modified 2010-11-18 10:43:29
Privacy PolicyDisclaimer
• wx.awcolley.com is powered by PmWiki v.2002016 •
• all content (unless otherwise noted) © 2018 A W Colley